Thursday, September 20, 2018, 6:19 PM EDT
Back to Local

KOXC, Oxford, Waterbury-oxford Airport

Location: Oxford, CT, United States Lat: 41.483
Local Time: 6:19 PM EDT (22:19 GMT) Lon: -73.133
Time Zone: US/Eastern Elev: 725 ft

Show me the last for .
Show Decoded

2018-09-20 17:51 METAR KOXC 202151Z 18005KT 9SM BKN031 BKN039 19/16 A3025 RMK AO2 SLP252
                 T01940156 =
2018-09-20 16:51 METAR KOXC 202051Z 10004KT 10SM BKN040 20/14 A3024 RMK AO2 SLP250 T02000139
                 55005 =
2018-09-20 15:51 METAR KOXC 201951Z 09005KT 10SM SCT031 BKN046 21/14 A3023 RMK AO2 SLP247
                 T02110144 =
2018-09-20 14:51 METAR KOXC 201851Z 09004KT 10SM BKN026 BKN047 21/14 A3024 RMK AO2 SLP249
                 T02060139 =
2018-09-20 13:51 METAR KOXC 201751Z COR 08004KT 10SM BKN026 BKN047 19/14 A3025 RMK AO2 SLP255
                 T01940139 10206 20150 58007 =
2018-09-20 12:51 METAR KOXC 201651Z 08008KT 340V150 10SM SCT022 BKN049 19/14 A3027 RMK AO2 SLP259
                 T01890139 =
2018-09-20 11:51 METAR KOXC 201551Z VRB05KT 10SM OVC022 18/14 A3027 RMK AO2 SLP261 T01830139 =
2018-09-20 10:51 METAR KOXC 201451Z 05004KT 10SM BKN020 OVC036 17/13 A3028 RMK AO2 SLP263
                 T01720133 53019 =
2018-09-20 10:13 METAR KOXC 201413Z 07005KT 10SM BKN018 OVC047 17/13 A3026 RMK AO2 =
2018-09-20 09:51 METAR KOXC 201351Z 09004KT 10SM SCT018 BKN034 OVC047 17/13 A3025 RMK AO2 SLP253
                 T01670128 =
2018-09-20 08:51 METAR KOXC 201251Z VRB05KT 10SM SCT014 OVC034 16/13 A3024 RMK AO2 SLP250
                 T01560128 =
2018-09-20 07:51 METAR KOXC 201151Z 03005KT 10SM BKN014 OVC049 15/13 A3022 RMK AO2 SLP243
                 T01500128 10156 20144 53023 =
2018-09-20 06:51 METAR KOXC 201051Z 05007KT 10SM OVC031 14/12 A3019 RMK AO2 SLP231 T01440122 =
2018-09-20 05:51 METAR KOXC 200951Z 08006KT 10SM OVC025 15/12 A3016 RMK AO2 SLP222 T01500122 =
2018-09-20 05:33 METAR KOXC 200933Z AUTO VRB04KT 10SM SCT025 BKN031 OVC048 15/12 A3016 RMK AO2
                 PWINO =
2018-09-20 04:51 METAR KOXC 200851Z AUTO 08005KT 10SM OVC022 15/12 A3015 RMK AO2 SLP217 T01500122
                 53006 PWINO =
2018-09-20 03:51 METAR KOXC 200751Z AUTO VRB05KT 10SM FEW016 OVC024 16/13 A3014 RMK AO2 SLP213
                 T01560133 PWINO =
2018-09-20 02:51 METAR KOXC 200651Z AUTO 09004KT 10SM OVC015 16/14 A3013 RMK AO2 SLP210 T01560139
                 PWINO =
2018-09-20 02:47 METAR KOXC 200647Z AUTO 09005KT 10SM OVC013 16/14 A3013 RMK AO2 PWINO =
2018-09-20 02:36 METAR KOXC 200636Z AUTO 10004KT 10SM BKN015 OVC030 16/14 A3013 RMK AO2 PWINO =
2018-09-20 02:18 METAR KOXC 200618Z AUTO 08004KT 10SM SCT017 BKN030 OVC055 16/14 A3012 RMK AO2
                 PWINO =
2018-09-20 01:51 METAR KOXC 200551Z AUTO 08004KT 10SM OVC017 16/14 A3012 RMK AO2 SLP207 T01560139
                 10206 20156 53005 PWINO =
2018-09-20 01:29 METAR KOXC 200529Z AUTO 08005KT 10SM BKN019 OVC055 16/13 A3012 RMK AO2 PWINO =
2018-09-20 00:51 METAR KOXC 200451Z AUTO 07006KT 10SM FEW018 BKN038 OVC055 16/13 A3011 RMK AO2
                 SLP205 T01610133 402500161 PWINO =
2018-09-20 00:33 METAR KOXC 200433Z AUTO 07005KT 10SM FEW015 SCT020 OVC038 16/14 A3011 RMK AO2
                 PWINO =
2018-09-20 00:26 METAR KOXC 200426Z AUTO 09003KT 10SM SCT013 BKN020 OVC038 16/14 A3011 RMK AO2
                 PWINO =
2018-09-19 23:51 METAR KOXC 200351Z AUTO 07004KT 10SM OVC013 17/14 A3011 RMK AO2 SLP203 T01670139
                 PWINO =
2018-09-19 22:51 METAR KOXC 200251Z AUTO VRB03KT 10SM BKN011 OVC014 17/16 A3010 RMK AO2 SLP201
                 T01720156 51027 PWINO =
2018-09-19 21:51 METAR KOXC 200151Z AUTO 10006KT 10SM BKN010 BKN014 OVC021 18/16 A3008 RMK AO2
                 SLP194 T01780161 PWINO =
2018-09-19 20:51 METAR KOXC 200051Z 10004KT 10SM BKN012 OVC017 19/17 A3006 RMK AO2 SLP186
                 T01940172 =
2018-09-19 20:30 METAR KOXC 200030Z 10006KT 10SM FEW010 BKN017 OVC022 19/17 A3005 RMK AO2 PRESRR
                 =
2018-09-19 19:58 METAR KOXC 192358Z 11004KT 10SM OVC012 21/19 A3002 RMK AO2 =
2018-09-19 19:51 METAR KOXC 192351Z 14003KT 10SM SCT021 21/19 A3002 RMK AO2 SLP173 T02060189
                 10250 20206 51021 =
2018-09-19 18:51 METAR KOXC 192251Z 10004KT 10SM FEW039 22/18 A3000 RMK AO2 SLP164 T02170178 =

Support USWX by starting your Amazon purchase here.